createdAt,value
2023-05-19T00:00:48.966Z,9.48
2023-05-19T00:06:11.647Z,9.43
2023-05-19T00:11:33.892Z,9.38
2023-05-19T00:16:56.035Z,9.33
2023-05-19T00:22:16.789Z,9.30
2023-05-19T00:27:37.421Z,9.28
2023-05-19T00:32:58.591Z,9.20
2023-05-19T00:38:19.486Z,9.15
2023-05-19T00:43:40.078Z,9.12
2023-05-19T00:49:01.019Z,9.06
2023-05-19T00:54:21.551Z,9.05
2023-05-19T00:59:42.285Z,9.04
2023-05-19T01:05:03.081Z,8.99
2023-05-19T01:10:23.682Z,8.99
2023-05-19T01:15:55.670Z,8.97
2023-05-19T01:21:28.616Z,8.91
2023-05-19T01:27:09.951Z,8.86
2023-05-19T01:32:33.259Z,8.84
2023-05-19T01:37:58.720Z,8.82
2023-05-19T01:43:24.450Z,8.74
2023-05-19T01:48:45.586Z,8.65
2023-05-19T01:54:07.184Z,8.55
2023-05-19T01:59:56.614Z,8.48
2023-05-19T02:05:29.529Z,8.43
2023-05-19T02:10:57.496Z,8.34
2023-05-19T02:16:21.948Z,8.27
2023-05-19T02:21:42.267Z,8.22
2023-05-19T02:27:03.351Z,8.18
2023-05-19T02:32:24.046Z,8.16
2023-05-19T02:37:44.750Z,8.13
2023-05-19T02:43:05.375Z,8.04
2023-05-19T02:48:26.301Z,7.98
2023-05-19T02:53:46.635Z,7.84
2023-05-19T02:59:07.415Z,7.81
2023-05-19T03:04:29.459Z,7.75
2023-05-19T03:09:50.020Z,7.75
2023-05-19T03:15:13.064Z,7.70
2023-05-19T03:20:33.710Z,7.66
2023-05-19T03:25:55.925Z,7.70
2023-05-19T03:31:17.628Z,7.69
2023-05-19T03:36:41.349Z,7.72
2023-05-19T03:42:09.481Z,7.72
2023-05-19T03:47:31.709Z,7.76
2023-05-19T03:53:22.360Z,7.78
2023-05-19T03:58:44.379Z,7.83
2023-05-19T04:04:05.179Z,7.91
2023-05-19T04:09:25.863Z,7.94
2023-05-19T04:14:46.609Z,7.99
2023-05-19T04:20:07.300Z,8.10
2023-05-19T04:25:28.330Z,8.20
2023-05-19T04:30:50.558Z,8.33
2023-05-19T04:36:13.674Z,8.53
2023-05-19T04:41:36.637Z,8.74
2023-05-19T04:47:00.069Z,8.99
2023-05-19T04:52:22.209Z,9.21
2023-05-19T04:57:44.001Z,9.43
2023-05-19T05:03:07.166Z,9.67
2023-05-19T05:08:28.251Z,9.85
2023-05-19T05:13:48.980Z,10.01
2023-05-19T05:19:10.208Z,10.17
2023-05-19T05:24:31.933Z,10.30
2023-05-19T05:29:54.243Z,10.42
2023-05-19T05:35:15.576Z,10.54
2023-05-19T05:40:37.215Z,10.67
2023-05-19T05:45:59.460Z,10.86
2023-05-19T05:51:23.727Z,11.01
2023-05-19T05:56:44.745Z,11.17
2023-05-19T06:02:05.723Z,11.31
2023-05-19T06:07:27.533Z,11.49
2023-05-19T06:12:48.603Z,11.69
2023-05-19T06:18:09.781Z,11.87
2023-05-19T06:23:31.263Z,12.08
2023-05-19T06:28:52.243Z,12.25
2023-05-19T06:34:16.513Z,12.41
2023-05-19T06:47:12.692Z,12.89
2023-05-19T06:52:33.332Z,13.15
2023-05-19T06:57:55.899Z,13.32
2023-05-19T07:03:16.624Z,13.56
2023-05-19T07:08:37.748Z,13.66
2023-05-19T07:14:00.980Z,13.83
2023-05-19T07:19:25.224Z,14.08
2023-05-19T07:24:48.204Z,14.32
2023-05-19T07:30:12.825Z,14.66
2023-05-19T07:35:34.922Z,14.95
2023-05-19T07:40:55.440Z,14.84
2023-05-19T07:46:16.391Z,14.60
2023-05-19T07:51:37.017Z,14.51
2023-05-19T07:56:57.946Z,14.39
2023-05-19T08:02:18.693Z,14.72
2023-05-19T08:07:39.630Z,14.91
2023-05-19T08:12:59.885Z,15.07
2023-05-19T08:18:20.682Z,15.37
2023-05-19T08:23:41.215Z,15.71
2023-05-19T08:29:01.877Z,16.12
2023-05-19T08:34:22.483Z,16.54
2023-05-19T08:39:42.961Z,16.61
2023-05-19T08:45:04.077Z,17.13
2023-05-19T08:50:30.705Z,17.83
2023-05-19T08:56:11.148Z,18.21
2023-05-19T09:01:32.268Z,18.81
2023-05-19T09:06:53.181Z,19.14
2023-05-19T09:12:14.309Z,19.73
2023-05-19T09:17:35.984Z,20.45
2023-05-19T09:22:57.395Z,20.75
2023-05-19T09:28:30.491Z,20.47
2023-05-19T09:33:53.351Z,20.81
2023-05-19T09:39:18.510Z,21.16
2023-05-19T09:44:39.353Z,21.55
2023-05-19T09:50:00.010Z,21.52
2023-05-19T09:55:23.219Z,22.09
2023-05-19T10:00:45.238Z,22.69
2023-05-19T10:06:07.438Z,23.43
2023-05-19T10:11:30.058Z,24.10
2023-05-19T10:16:59.272Z,24.61
2023-05-19T10:22:19.910Z,25.16
2023-05-19T10:27:44.880Z,25.54
2023-05-19T10:33:10.344Z,25.20
2023-05-19T10:38:45.795Z,25.41
2023-05-19T10:44:36.069Z,24.70
2023-05-19T10:50:00.258Z,24.69
2023-05-19T10:55:47.720Z,24.50
2023-05-19T11:01:16.941Z,25.16
2023-05-19T11:06:38.088Z,25.39
2023-05-19T11:12:03.345Z,25.20
2023-05-19T11:17:25.048Z,23.99
2023-05-19T11:23:01.698Z,23.55
2023-05-19T11:28:28.040Z,23.38
2023-05-19T11:33:48.449Z,23.49
2023-05-19T11:39:10.460Z,23.58
2023-05-19T11:44:31.699Z,23.83
2023-05-19T11:49:52.554Z,24.09
2023-05-19T11:55:22.583Z,23.70
2023-05-19T12:00:46.240Z,23.34
2023-05-19T12:06:08.387Z,22.87
2023-05-19T12:11:29.245Z,22.76
2023-05-19T12:16:49.904Z,23.36
2023-05-19T12:22:11.136Z,24.03
2023-05-19T12:27:37.226Z,25.08
2023-05-19T12:32:58.280Z,25.90
2023-05-19T12:38:20.908Z,26.09
2023-05-19T12:43:41.497Z,26.34
2023-05-19T12:49:02.033Z,26.74
2023-05-19T12:54:22.466Z,27.13
2023-05-19T12:59:43.415Z,26.86
2023-05-19T13:05:04.921Z,26.32
2023-05-19T13:10:29.422Z,26.80
2023-05-19T13:16:09.166Z,26.24
2023-05-19T13:21:50.517Z,26.41
2023-05-19T13:27:11.172Z,26.50
2023-05-19T13:32:32.035Z,26.54
2023-05-19T13:37:52.965Z,26.55
2023-05-19T13:43:13.700Z,26.57
2023-05-19T13:48:34.148Z,26.73
2023-05-19T13:53:54.992Z,26.42
2023-05-19T13:59:17.249Z,25.64
2023-05-19T14:04:38.945Z,24.81
2023-05-19T14:09:59.618Z,24.20
2023-05-19T14:15:20.552Z,23.87
2023-05-19T14:20:40.955Z,23.83
2023-05-19T14:26:01.786Z,23.95
2023-05-19T14:31:22.366Z,23.70
2023-05-19T14:36:44.553Z,23.38
2023-05-19T14:42:05.170Z,23.26
2023-05-19T14:47:27.111Z,23.33
2023-05-19T14:52:48.106Z,23.69
2023-05-19T14:58:19.991Z,23.81
2023-05-19T15:03:49.114Z,24.28
2023-05-19T15:09:11.924Z,25.06
2023-05-19T15:14:32.672Z,25.00
2023-05-19T15:19:53.359Z,25.46
2023-05-19T15:25:13.867Z,26.46
2023-05-19T15:30:34.632Z,27.99
2023-05-19T15:35:55.447Z,29.16
2023-05-19T15:41:16.300Z,30.01
2023-05-19T15:46:36.811Z,28.42
2023-05-19T15:51:57.596Z,26.90
2023-05-19T15:57:18.485Z,26.05
2023-05-19T16:02:39.066Z,25.31
2023-05-19T16:07:59.987Z,25.06
2023-05-19T16:13:21.585Z,24.81
2023-05-19T16:18:44.206Z,25.30
2023-05-19T16:24:05.256Z,25.37
2023-05-19T16:29:26.209Z,24.79
2023-05-19T16:34:47.036Z,24.45
2023-05-19T16:40:08.303Z,24.67
2023-05-19T16:45:29.023Z,24.86
2023-05-19T16:50:49.849Z,23.94
2023-05-19T16:56:10.796Z,23.15
2023-05-19T17:01:31.412Z,22.94
2023-05-19T17:06:51.862Z,22.67
2023-05-19T17:12:13.316Z,22.18
2023-05-19T17:17:33.765Z,21.64
2023-05-19T17:22:54.593Z,21.10
2023-05-19T17:28:15.217Z,20.86
2023-05-19T17:33:36.230Z,20.69
2023-05-19T17:38:56.787Z,20.45
2023-05-19T17:44:17.503Z,20.38
2023-05-19T17:49:40.166Z,20.21
2023-05-19T17:55:01.266Z,19.84
2023-05-19T18:00:22.463Z,19.48
2023-05-19T18:05:44.643Z,19.28
2023-05-19T18:11:05.650Z,19.15
2023-05-19T18:16:27.339Z,18.92
2023-05-19T18:21:48.120Z,18.63
2023-05-19T18:27:08.777Z,18.37
2023-05-19T18:32:29.212Z,18.11
2023-05-19T18:37:50.058Z,17.81
2023-05-19T18:43:10.972Z,17.62
2023-05-19T18:48:33.275Z,17.36
2023-05-19T18:53:53.516Z,17.13
2023-05-19T18:59:14.386Z,16.93
2023-05-19T19:04:34.942Z,16.68
2023-05-19T19:09:55.538Z,16.46
2023-05-19T19:15:16.204Z,16.36
2023-05-19T19:20:36.663Z,16.32
2023-05-19T19:25:57.374Z,16.20
2023-05-19T19:31:18.168Z,16.04
2023-05-19T19:36:38.789Z,15.79
2023-05-19T19:41:59.152Z,15.63
2023-05-19T19:47:20.156Z,15.47
2023-05-19T19:52:41.295Z,15.35
2023-05-19T19:58:01.942Z,15.23
2023-05-19T20:03:23.075Z,15.12
2023-05-19T20:08:43.991Z,14.99
2023-05-19T20:14:05.058Z,14.84
2023-05-19T20:19:28.117Z,14.65
2023-05-19T20:24:48.610Z,14.47
2023-05-19T20:30:10.728Z,14.29
2023-05-19T20:35:31.883Z,14.14
2023-05-19T20:43:12.817Z,13.98
2023-05-19T20:48:33.512Z,13.94
2023-05-19T20:53:54.050Z,13.88
2023-05-19T20:59:14.552Z,13.86
2023-05-19T21:04:35.467Z,13.80
2023-05-19T21:09:57.588Z,13.70
2023-05-19T21:15:18.195Z,13.63
2023-05-19T21:20:39.300Z,13.55
2023-05-19T21:26:00.281Z,13.50
2023-05-19T21:31:20.816Z,13.41
2023-05-19T21:36:42.253Z,13.33
2023-05-19T21:42:03.502Z,13.23
2023-05-19T21:47:23.860Z,13.12
2023-05-19T21:52:44.581Z,13.01
2023-05-19T21:58:05.144Z,12.94
2023-05-19T22:03:26.172Z,12.87
2023-05-19T22:08:46.617Z,12.79
2023-05-19T22:14:07.481Z,12.74
2023-05-19T22:19:27.910Z,12.65
2023-05-19T22:24:48.975Z,12.59
2023-05-19T22:30:09.724Z,12.53
2023-05-19T22:35:30.330Z,12.45
2023-05-19T22:40:51.186Z,12.38
2023-05-19T22:46:11.565Z,12.32
2023-05-19T22:51:32.634Z,12.26
2023-05-19T22:56:53.541Z,12.20
2023-05-19T23:02:14.131Z,12.18
2023-05-19T23:07:34.788Z,12.16
2023-05-19T23:12:55.354Z,12.12
2023-05-19T23:18:15.978Z,12.07
2023-05-19T23:23:36.787Z,11.99
2023-05-19T23:28:57.321Z,11.95
2023-05-19T23:34:17.918Z,11.90
2023-05-19T23:39:38.520Z,11.85
2023-05-19T23:44:59.577Z,11.80
2023-05-19T23:50:20.204Z,11.75
2023-05-19T23:55:40.828Z,11.69
